sensor_id;sensor_type;location;lat;lon;timestamp;temperature;humidity
11934;DHT22;6026;48.784;9.198;2022-11-02T00:01:47;9.80;99.90
11934;DHT22;6026;48.784;9.198;2022-11-02T00:04:13;9.80;99.90
11934;DHT22;6026;48.784;9.198;2022-11-02T00:06:39;9.80;99.90
11934;DHT22;6026;48.784;9.198;2022-11-02T00:09:06;9.80;99.90
11934;DHT22;6026;48.784;9.198;2022-11-02T00:11:32;9.80;99.90
11934;DHT22;6026;48.784;9.198;2022-11-02T00:13:58;9.80;99.90
11934;DHT22;6026;48.784;9.198;2022-11-02T00:16:23;9.70;99.90
11934;DHT22;6026;48.784;9.198;2022-11-02T00:18:52;9.80;99.90
11934;DHT22;6026;48.784;9.198;2022-11-02T00:21:20;9.70;99.90
11934;DHT22;6026;48.784;9.198;2022-11-02T00:23:47;9.80;99.90
11934;DHT22;6026;48.784;9.198;2022-11-02T00:26:14;9.80;99.90
11934;DHT22;6026;48.784;9.198;2022-11-02T00:28:40;9.70;99.90
11934;DHT22;6026;48.784;9.198;2022-11-02T00:31:05;9.70;99.90
11934;DHT22;6026;48.784;9.198;2022-11-02T00:33:31;9.80;99.90
11934;DHT22;6026;48.784;9.198;2022-11-02T00:35:57;9.70;99.90
11934;DHT22;6026;48.784;9.198;2022-11-02T00:38:23;9.70;99.90
11934;DHT22;6026;48.784;9.198;2022-11-02T00:40:48;9.70;99.90
11934;DHT22;6026;48.784;9.198;2022-11-02T00:43:14;9.70;99.90
11934;DHT22;6026;48.784;9.198;2022-11-02T00:46:01;9.70;99.90
11934;DHT22;6026;48.784;9.198;2022-11-02T00:48:27;9.70;99.90
11934;DHT22;6026;48.784;9.198;2022-11-02T00:50:52;9.70;99.90
11934;DHT22;6026;48.784;9.198;2022-11-02T00:53:18;9.70;99.90
11934;DHT22;6026;48.784;9.198;2022-11-02T00:55:43;9.70;99.90
11934;DHT22;6026;48.784;9.198;2022-11-02T00:58:09;9.70;99.90
11934;DHT22;6026;48.784;9.198;2022-11-02T01:00:34;9.70;99.90
11934;DHT22;6026;48.784;9.198;2022-11-02T01:03:00;9.70;99.90
11934;DHT22;6026;48.784;9.198;2022-11-02T01:05:27;9.60;99.90
11934;DHT22;6026;48.784;9.198;2022-11-02T01:07:52;9.60;99.90
11934;DHT22;6026;48.784;9.198;2022-11-02T01:10:18;9.60;99.90
11934;DHT22;6026;48.784;9.198;2022-11-02T01:12:43;9.60;99.90
11934;DHT22;6026;48.784;9.198;2022-11-02T01:15:09;9.60;99.90
11934;DHT22;6026;48.784;9.198;2022-11-02T01:17:35;9.60;99.90
11934;DHT22;6026;48.784;9.198;2022-11-02T01:20:02;9.60;99.90
11934;DHT22;6026;48.784;9.198;2022-11-02T01:22:27;9.60;99.90
11934;DHT22;6026;48.784;9.198;2022-11-02T01:24:53;9.60;99.90
11934;DHT22;6026;48.784;9.198;2022-11-02T01:27:19;9.60;99.90
11934;DHT22;6026;48.784;9.198;2022-11-02T01:29:44;9.70;99.90
11934;DHT22;6026;48.784;9.198;2022-11-02T01:32:10;9.70;99.90
11934;DHT22;6026;48.784;9.198;2022-11-02T01:34:36;9.70;99.90
11934;DHT22;6026;48.784;9.198;2022-11-02T01:37:01;9.70;99.90
11934;DHT22;6026;48.784;9.198;2022-11-02T01:39:27;9.70;99.90
11934;DHT22;6026;48.784;9.198;2022-11-02T01:41:52;9.80;99.90
11934;DHT22;6026;48.784;9.198;2022-11-02T01:44:33;9.80;99.90
11934;DHT22;6026;48.784;9.198;2022-11-02T01:47:07;9.80;99.90
11934;DHT22;6026;48.784;9.198;2022-11-02T01:49:35;9.80;99.90
11934;DHT22;6026;48.784;9.198;2022-11-02T01:52:08;9.80;99.90
11934;DHT22;6026;48.784;9.198;2022-11-02T01:54:46;9.80;99.90
11934;DHT22;6026;48.784;9.198;2022-11-02T01:57:16;9.80;99.90
11934;DHT22;6026;48.784;9.198;2022-11-02T01:59:58;9.80;99.90
11934;DHT22;6026;48.784;9.198;2022-11-02T02:02:26;9.80;99.90
11934;DHT22;6026;48.784;9.198;2022-11-02T02:04:58;9.80;99.90
11934;DHT22;6026;48.784;9.198;2022-11-02T02:07:25;9.80;99.90
11934;DHT22;6026;48.784;9.198;2022-11-02T02:09:51;9.70;99.90
11934;DHT22;6026;48.784;9.198;2022-11-02T02:12:19;9.70;99.90
11934;DHT22;6026;48.784;9.198;2022-11-02T02:14:45;9.70;99.90
11934;DHT22;6026;48.784;9.198;2022-11-02T02:37:01;9.70;99.90
11934;DHT22;6026;48.784;9.198;2022-11-02T02:42:18;9.70;99.90
11934;DHT22;6026;48.784;9.198;2022-11-02T02:47:22;9.70;99.90
11934;DHT22;6026;48.784;9.198;2022-11-02T02:50:02;9.70;99.90
11934;DHT22;6026;48.784;9.198;2022-11-02T02:52:44;9.70;99.90
11934;DHT22;6026;48.784;9.198;2022-11-02T02:55:18;9.70;99.90
11934;DHT22;6026;48.784;9.198;2022-11-02T02:57:45;9.70;99.90
11934;DHT22;6026;48.784;9.198;2022-11-02T03:00:16;9.70;99.90
11934;DHT22;6026;48.784;9.198;2022-11-02T03:02:44;9.70;99.90
11934;DHT22;6026;48.784;9.198;2022-11-02T03:05:27;9.70;99.90
11934;DHT22;6026;48.784;9.198;2022-11-02T03:07:54;9.70;99.90
11934;DHT22;6026;48.784;9.198;2022-11-02T03:10:33;9.70;99.90
11934;DHT22;6026;48.784;9.198;2022-11-02T03:13:15;9.70;99.90
11934;DHT22;6026;48.784;9.198;2022-11-02T03:15:48;9.80;99.90
11934;DHT22;6026;48.784;9.198;2022-11-02T03:18:47;9.80;99.90
11934;DHT22;6026;48.784;9.198;2022-11-02T03:21:42;9.80;99.90
11934;DHT22;6026;48.784;9.198;2022-11-02T03:24:12;9.80;99.90
11934;DHT22;6026;48.784;9.198;2022-11-02T03:29:09;9.80;99.90
11934;DHT22;6026;48.784;9.198;2022-11-02T03:31:44;9.80;99.90
11934;DHT22;6026;48.784;9.198;2022-11-02T03:34:27;9.80;99.90
11934;DHT22;6026;48.784;9.198;2022-11-02T03:39:45;9.80;99.90
11934;DHT22;6026;48.784;9.198;2022-11-02T03:42:14;9.80;99.90
11934;DHT22;6026;48.784;9.198;2022-11-02T03:44:42;9.80;99.90
11934;DHT22;6026;48.784;9.198;2022-11-02T03:47:11;9.80;99.90
11934;DHT22;6026;48.784;9.198;2022-11-02T03:49:39;9.80;99.90
11934;DHT22;6026;48.784;9.198;2022-11-02T03:52:09;9.80;99.90
11934;DHT22;6026;48.784;9.198;2022-11-02T03:54:46;9.80;99.90
11934;DHT22;6026;48.784;9.198;2022-11-02T03:57:42;9.90;99.90
11934;DHT22;6026;48.784;9.198;2022-11-02T04:00:18;10.00;99.90
11934;DHT22;6026;48.784;9.198;2022-11-02T04:02:50;10.00;99.90
11934;DHT22;6026;48.784;9.198;2022-11-02T04:05:17;10.00;99.90
11934;DHT22;6026;48.784;9.198;2022-11-02T04:07:46;10.10;99.90
11934;DHT22;6026;48.784;9.198;2022-11-02T04:10:31;10.20;99.90
11934;DHT22;6026;48.784;9.198;2022-11-02T04:12:57;10.20;99.90
11934;DHT22;6026;48.784;9.198;2022-11-02T04:15:40;10.10;99.90
11934;DHT22;6026;48.784;9.198;2022-11-02T04:18:06;10.10;99.90
11934;DHT22;6026;48.784;9.198;2022-11-02T04:20:51;10.10;99.90
11934;DHT22;6026;48.784;9.198;2022-11-02T04:23:17;10.20;99.90
11934;DHT22;6026;48.784;9.198;2022-11-02T04:26:01;10.20;99.90
11934;DHT22;6026;48.784;9.198;2022-11-02T04:28:27;10.20;99.90
11934;DHT22;6026;48.784;9.198;2022-11-02T04:30:53;10.20;99.90
11934;DHT22;6026;48.784;9.198;2022-11-02T04:33:18;10.20;99.90
11934;DHT22;6026;48.784;9.198;2022-11-02T04:38:25;10.20;99.90
11934;DHT22;6026;48.784;9.198;2022-11-02T04:41:14;10.20;99.90
11934;DHT22;6026;48.784;9.198;2022-11-02T04:43:58;10.20;99.90
11934;DHT22;6026;48.784;9.198;2022-11-02T04:46:26;10.20;99.90
11934;DHT22;6026;48.784;9.198;2022-11-02T04:48:52;10.20;99.90
11934;DHT22;6026;48.784;9.198;2022-11-02T04:51:19;10.20;99.90
11934;DHT22;6026;48.784;9.198;2022-11-02T04:53:48;10.10;99.90
11934;DHT22;6026;48.784;9.198;2022-11-02T04:56:14;10.10;99.90
11934;DHT22;6026;48.784;9.198;2022-11-02T04:58:40;10.10;99.90
11934;DHT22;6026;48.784;9.198;2022-11-02T05:01:07;10.10;99.90
11934;DHT22;6026;48.784;9.198;2022-11-02T05:03:34;10.00;99.90
11934;DHT22;6026;48.784;9.198;2022-11-02T05:06:00;10.00;99.90
11934;DHT22;6026;48.784;9.198;2022-11-02T05:08:26;10.00;99.90
11934;DHT22;6026;48.784;9.198;2022-11-02T05:10:55;10.10;99.90
11934;DHT22;6026;48.784;9.198;2022-11-02T05:13:22;10.00;99.90
11934;DHT22;6026;48.784;9.198;2022-11-02T05:15:48;10.00;99.90
11934;DHT22;6026;48.784;9.198;2022-11-02T05:18:14;10.00;99.90
11934;DHT22;6026;48.784;9.198;2022-11-02T05:24:02;9.90;99.90
11934;DHT22;6026;48.784;9.198;2022-11-02T05:26:27;9.90;99.90
11934;DHT22;6026;48.784;9.198;2022-11-02T05:28:53;9.80;99.90
11934;DHT22;6026;48.784;9.198;2022-11-02T05:31:18;9.80;99.90
11934;DHT22;6026;48.784;9.198;2022-11-02T05:33:44;9.80;99.90
11934;DHT22;6026;48.784;9.198;2022-11-02T05:36:09;9.70;99.90
11934;DHT22;6026;48.784;9.198;2022-11-02T05:38:35;9.70;99.90
11934;DHT22;6026;48.784;9.198;2022-11-02T05:41:01;9.70;99.90
11934;DHT22;6026;48.784;9.198;2022-11-02T05:43:27;9.70;99.90
11934;DHT22;6026;48.784;9.198;2022-11-02T05:45:54;9.60;99.90
11934;DHT22;6026;48.784;9.198;2022-11-02T05:48:20;9.70;99.90
11934;DHT22;6026;48.784;9.198;2022-11-02T05:50:46;9.70;99.90
11934;DHT22;6026;48.784;9.198;2022-11-02T05:53:12;9.70;99.90
11934;DHT22;6026;48.784;9.198;2022-11-02T05:55:37;9.70;99.90
11934;DHT22;6026;48.784;9.198;2022-11-02T05:58:03;9.90;99.90
11934;DHT22;6026;48.784;9.198;2022-11-02T06:00:28;9.90;99.90
11934;DHT22;6026;48.784;9.198;2022-11-02T06:02:56;9.90;99.90
11934;DHT22;6026;48.784;9.198;2022-11-02T06:05:22;9.90;99.90
11934;DHT22;6026;48.784;9.198;2022-11-02T06:07:47;10.00;99.90
11934;DHT22;6026;48.784;9.198;2022-11-02T06:10:13;10.10;99.90
11934;DHT22;6026;48.784;9.198;2022-11-02T06:12:38;10.10;99.90
11934;DHT22;6026;48.784;9.198;2022-11-02T06:15:04;10.10;99.90
11934;DHT22;6026;48.784;9.198;2022-11-02T06:17:40;10.10;99.90
11934;DHT22;6026;48.784;9.198;2022-11-02T06:20:06;10.00;99.90
11934;DHT22;6026;48.784;9.198;2022-11-02T06:22:42;10.10;99.90
11934;DHT22;6026;48.784;9.198;2022-11-02T06:25:08;10.10;99.90
11934;DHT22;6026;48.784;9.198;2022-11-02T06:27:34;10.20;99.90
11934;DHT22;6026;48.784;9.198;2022-11-02T06:30:00;10.10;99.90
11934;DHT22;6026;48.784;9.198;2022-11-02T06:32:26;10.20;99.90
11934;DHT22;6026;48.784;9.198;2022-11-02T06:38:14;10.20;99.90
11934;DHT22;6026;48.784;9.198;2022-11-02T06:40:40;10.30;99.90
11934;DHT22;6026;48.784;9.198;2022-11-02T06:43:06;10.30;99.90
11934;DHT22;6026;48.784;9.198;2022-11-02T06:45:31;10.30;99.90
11934;DHT22;6026;48.784;9.198;2022-11-02T06:47:57;10.40;99.90
11934;DHT22;6026;48.784;9.198;2022-11-02T06:50:44;10.50;99.90
11934;DHT22;6026;48.784;9.198;2022-11-02T06:53:10;10.50;99.90
11934;DHT22;6026;48.784;9.198;2022-11-02T06:55:36;10.50;99.90
11934;DHT22;6026;48.784;9.198;2022-11-02T06:58:01;10.60;99.90
11934;DHT22;6026;48.784;9.198;2022-11-02T07:00:27;10.70;99.90
11934;DHT22;6026;48.784;9.198;2022-11-02T07:03:02;10.70;99.90
11934;DHT22;6026;48.784;9.198;2022-11-02T07:05:28;10.80;99.90
11934;DHT22;6026;48.784;9.198;2022-11-02T07:08:16;10.90;99.90
11934;DHT22;6026;48.784;9.198;2022-11-02T07:10:41;10.90;99.90
11934;DHT22;6026;48.784;9.198;2022-11-02T07:13:07;10.90;99.90
11934;DHT22;6026;48.784;9.198;2022-11-02T07:15:32;11.00;99.90
11934;DHT22;6026;48.784;9.198;2022-11-02T07:17:58;11.00;99.90
11934;DHT22;6026;48.784;9.198;2022-11-02T07:20:23;11.10;99.90
11934;DHT22;6026;48.784;9.198;2022-11-02T07:22:57;11.10;99.90
11934;DHT22;6026;48.784;9.198;2022-11-02T07:25:24;11.20;99.90
11934;DHT22;6026;48.784;9.198;2022-11-02T07:27:50;11.20;99.90
11934;DHT22;6026;48.784;9.198;2022-11-02T07:30:16;11.30;99.90
11934;DHT22;6026;48.784;9.198;2022-11-02T07:32:43;11.30;99.90
11934;DHT22;6026;48.784;9.198;2022-11-02T07:35:11;11.40;99.90
11934;DHT22;6026;48.784;9.198;2022-11-02T07:37:37;11.50;99.90
11934;DHT22;6026;48.784;9.198;2022-11-02T07:40:04;11.70;99.90
11934;DHT22;6026;48.784;9.198;2022-11-02T07:42:30;11.80;99.90
11934;DHT22;6026;48.784;9.198;2022-11-02T07:44:55;12.00;99.90
11934;DHT22;6026;48.784;9.198;2022-11-02T07:47:21;12.20;99.90
11934;DHT22;6026;48.784;9.198;2022-11-02T07:50:24;12.40;99.90
11934;DHT22;6026;48.784;9.198;2022-11-02T07:52:55;12.50;99.90
11934;DHT22;6026;48.784;9.198;2022-11-02T07:55:39;12.60;99.90
11934;DHT22;6026;48.784;9.198;2022-11-02T08:01:19;12.70;99.90
11934;DHT22;6026;48.784;9.198;2022-11-02T08:03:44;12.80;99.90
11934;DHT22;6026;48.784;9.198;2022-11-02T08:06:10;12.80;99.90
11934;DHT22;6026;48.784;9.198;2022-11-02T08:08:36;12.80;99.90
11934;DHT22;6026;48.784;9.198;2022-11-02T08:11:04;12.90;99.90
11934;DHT22;6026;48.784;9.198;2022-11-02T08:13:30;12.90;99.90
11934;DHT22;6026;48.784;9.198;2022-11-02T08:15:55;13.00;99.90
11934;DHT22;6026;48.784;9.198;2022-11-02T08:18:26;13.00;99.90
11934;DHT22;6026;48.784;9.198;2022-11-02T08:20:54;13.10;99.90
11934;DHT22;6026;48.784;9.198;2022-11-02T08:23:20;13.30;99.90
11934;DHT22;6026;48.784;9.198;2022-11-02T08:25:47;13.40;99.90
11934;DHT22;6026;48.784;9.198;2022-11-02T08:28:16;13.60;99.90
11934;DHT22;6026;48.784;9.198;2022-11-02T08:30:42;13.70;99.90
11934;DHT22;6026;48.784;9.198;2022-11-02T08:33:11;13.90;99.90
11934;DHT22;6026;48.784;9.198;2022-11-02T08:35:38;14.00;99.90
11934;DHT22;6026;48.784;9.198;2022-11-02T08:38:05;14.10;99.90
11934;DHT22;6026;48.784;9.198;2022-11-02T08:40:31;14.40;99.90
11934;DHT22;6026;48.784;9.198;2022-11-02T08:42:58;14.60;99.90
11934;DHT22;6026;48.784;9.198;2022-11-02T08:45:25;14.80;99.90
11934;DHT22;6026;48.784;9.198;2022-11-02T08:47:50;14.90;99.90
11934;DHT22;6026;48.784;9.198;2022-11-02T08:50:16;15.10;99.90
11934;DHT22;6026;48.784;9.198;2022-11-02T08:52:42;15.20;99.90
11934;DHT22;6026;48.784;9.198;2022-11-02T08:55:07;15.10;99.90
11934;DHT22;6026;48.784;9.198;2022-11-02T08:57:52;15.20;99.90
11934;DHT22;6026;48.784;9.198;2022-11-02T09:00:20;15.10;99.90
11934;DHT22;6026;48.784;9.198;2022-11-02T09:03:05;15.10;99.90
11934;DHT22;6026;48.784;9.198;2022-11-02T09:05:33;15.20;99.90
11934;DHT22;6026;48.784;9.198;2022-11-02T09:08:03;15.20;99.90
11934;DHT22;6026;48.784;9.198;2022-11-02T09:13:33;15.40;99.90
11934;DHT22;6026;48.784;9.198;2022-11-02T09:15:59;15.50;99.90
11934;DHT22;6026;48.784;9.198;2022-11-02T09:18:27;15.40;99.90
11934;DHT22;6026;48.784;9.198;2022-11-02T09:20:53;15.50;99.90
11934;DHT22;6026;48.784;9.198;2022-11-02T09:23:19;15.40;99.90
11934;DHT22;6026;48.784;9.198;2022-11-02T09:25:45;15.40;99.90
11934;DHT22;6026;48.784;9.198;2022-11-02T09:28:11;15.20;99.90
11934;DHT22;6026;48.784;9.198;2022-11-02T09:30:38;15.10;99.90
11934;DHT22;6026;48.784;9.198;2022-11-02T09:33:05;15.10;99.90
11934;DHT22;6026;48.784;9.198;2022-11-02T09:35:36;15.10;99.90
11934;DHT22;6026;48.784;9.198;2022-11-02T09:38:02;15.10;99.90
11934;DHT22;6026;48.784;9.198;2022-11-02T09:41:10;15.10;99.90
11934;DHT22;6026;48.784;9.198;2022-11-02T09:48:52;15.10;99.90
11934;DHT22;6026;48.784;9.198;2022-11-02T09:54:47;15.20;99.90
11934;DHT22;6026;48.784;9.198;2022-11-02T09:57:28;15.00;99.90
11934;DHT22;6026;48.784;9.198;2022-11-02T09:59:54;15.10;99.90
11934;DHT22;6026;48.784;9.198;2022-11-02T10:08:16;15.20;99.90
11934;DHT22;6026;48.784;9.198;2022-11-02T10:10:52;15.30;99.90
11934;DHT22;6026;48.784;9.198;2022-11-02T10:13:32;15.30;99.90
11934;DHT22;6026;48.784;9.198;2022-11-02T10:16:07;15.30;99.90
11934;DHT22;6026;48.784;9.198;2022-11-02T10:18:35;15.30;99.90
11934;DHT22;6026;48.784;9.198;2022-11-02T10:21:06;15.30;99.90
11934;DHT22;6026;48.784;9.198;2022-11-02T10:26:01;15.30;99.90
11934;DHT22;6026;48.784;9.198;2022-11-02T10:28:33;15.40;99.90
11934;DHT22;6026;48.784;9.198;2022-11-02T10:31:01;15.40;99.90
11934;DHT22;6026;48.784;9.198;2022-11-02T10:33:29;15.40;99.90
11934;DHT22;6026;48.784;9.198;2022-11-02T10:38:59;15.40;99.90
11934;DHT22;6026;48.784;9.198;2022-11-02T10:41:42;15.50;99.90
11934;DHT22;6026;48.784;9.198;2022-11-02T10:52:16;15.70;99.90
11934;DHT22;6026;48.784;9.198;2022-11-02T10:54:42;15.70;99.90
11934;DHT22;6026;48.784;9.198;2022-11-02T10:57:13;15.80;99.90
11934;DHT22;6026;48.784;9.198;2022-11-02T10:59:38;15.70;99.90
11934;DHT22;6026;48.784;9.198;2022-11-02T11:02:11;15.80;99.90
11934;DHT22;6026;48.784;9.198;2022-11-02T11:04:39;15.70;99.90
11934;DHT22;6026;48.784;9.198;2022-11-02T11:07:11;15.70;99.90
11934;DHT22;6026;48.784;9.198;2022-11-02T11:12:16;15.70;99.90
11934;DHT22;6026;48.784;9.198;2022-11-02T11:14:54;15.70;99.90
11934;DHT22;6026;48.784;9.198;2022-11-02T11:17:26;15.70;99.90
11934;DHT22;6026;48.784;9.198;2022-11-02T11:19:56;15.60;99.90
11934;DHT22;6026;48.784;9.198;2022-11-02T11:22:27;15.60;99.90
11934;DHT22;6026;48.784;9.198;2022-11-02T11:27:44;15.50;99.90
11934;DHT22;6026;48.784;9.198;2022-11-02T11:30:37;15.40;99.90
11934;DHT22;6026;48.784;9.198;2022-11-02T11:33:04;15.50;99.90
11934;DHT22;6026;48.784;9.198;2022-11-02T11:35:33;15.60;99.90
11934;DHT22;6026;48.784;9.198;2022-11-02T11:38:02;15.90;99.90
11934;DHT22;6026;48.784;9.198;2022-11-02T11:40:34;16.10;99.90
11934;DHT22;6026;48.784;9.198;2022-11-02T11:43:03;16.60;99.90
11934;DHT22;6026;48.784;9.198;2022-11-02T11:45:31;17.30;99.90
11934;DHT22;6026;48.784;9.198;2022-11-02T11:50:22;18.50;99.90
11934;DHT22;6026;48.784;9.198;2022-11-02T11:53:23;19.10;99.90
11934;DHT22;6026;48.784;9.198;2022-11-02T11:55:54;19.60;99.90
11934;DHT22;6026;48.784;9.198;2022-11-02T11:58:30;19.80;99.90
11934;DHT22;6026;48.784;9.198;2022-11-02T12:01:20;20.30;99.90
11934;DHT22;6026;48.784;9.198;2022-11-02T12:03:52;20.50;99.90
11934;DHT22;6026;48.784;9.198;2022-11-02T12:06:40;20.80;99.90
11934;DHT22;6026;48.784;9.198;2022-11-02T12:12:18;20.40;99.90
11934;DHT22;6026;48.784;9.198;2022-11-02T12:23:07;19.20;99.90
11934;DHT22;6026;48.784;9.198;2022-11-02T12:26:17;19.20;99.90
11934;DHT22;6026;48.784;9.198;2022-11-02T12:29:15;19.90;99.90
11934;DHT22;6026;48.784;9.198;2022-11-02T12:31:50;20.50;99.90
11934;DHT22;6026;48.784;9.198;2022-11-02T12:48:22;23.80;99.90
11934;DHT22;6026;48.784;9.198;2022-11-02T12:51:01;24.00;99.90
11934;DHT22;6026;48.784;9.198;2022-11-02T12:53:52;23.90;99.90
11934;DHT22;6026;48.784;9.198;2022-11-02T12:56:26;24.00;99.90
11934;DHT22;6026;48.784;9.198;2022-11-02T12:58:54;24.30;99.90
11934;DHT22;6026;48.784;9.198;2022-11-02T13:01:38;23.90;99.90
11934;DHT22;6026;48.784;9.198;2022-11-02T13:04:25;24.10;99.90
11934;DHT22;6026;48.784;9.198;2022-11-02T13:07:03;23.80;99.90
11934;DHT22;6026;48.784;9.198;2022-11-02T13:09:35;23.40;99.90
11934;DHT22;6026;48.784;9.198;2022-11-02T13:12:17;23.30;99.90
11934;DHT22;6026;48.784;9.198;2022-11-02T13:14:47;23.40;99.90
11934;DHT22;6026;48.784;9.198;2022-11-02T13:17:19;23.00;99.90
11934;DHT22;6026;48.784;9.198;2022-11-02T13:19:50;22.40;99.90
11934;DHT22;6026;48.784;9.198;2022-11-02T13:22:19;21.80;99.90
11934;DHT22;6026;48.784;9.198;2022-11-02T13:24:47;21.50;99.90
11934;DHT22;6026;48.784;9.198;2022-11-02T13:29:51;20.80;99.90
11934;DHT22;6026;48.784;9.198;2022-11-02T13:32:35;20.60;99.90
11934;DHT22;6026;48.784;9.198;2022-11-02T13:35:23;20.20;99.90
11934;DHT22;6026;48.784;9.198;2022-11-02T13:37:59;20.10;99.90
11934;DHT22;6026;48.784;9.198;2022-11-02T13:40:36;20.40;99.90
11934;DHT22;6026;48.784;9.198;2022-11-02T13:45:46;19.90;99.90
11934;DHT22;6026;48.784;9.198;2022-11-02T13:48:22;19.90;99.90
11934;DHT22;6026;48.784;9.198;2022-11-02T13:50:52;19.80;99.90
11934;DHT22;6026;48.784;9.198;2022-11-02T13:53:24;19.50;99.90
11934;DHT22;6026;48.784;9.198;2022-11-02T13:55:53;19.50;99.90
11934;DHT22;6026;48.784;9.198;2022-11-02T13:58:26;19.60;99.90
11934;DHT22;6026;48.784;9.198;2022-11-02T14:00:59;19.80;99.90
11934;DHT22;6026;48.784;9.198;2022-11-02T14:06:10;19.60;99.90
11934;DHT22;6026;48.784;9.198;2022-11-02T14:08:46;19.50;99.90
11934;DHT22;6026;48.784;9.198;2022-11-02T14:16:45;18.20;99.90
11934;DHT22;6026;48.784;9.198;2022-11-02T14:19:31;17.90;99.90
11934;DHT22;6026;48.784;9.198;2022-11-02T14:22:14;17.60;99.90
11934;DHT22;6026;48.784;9.198;2022-11-02T14:40:22;16.80;99.90
11934;DHT22;6026;48.784;9.198;2022-11-02T14:46:00;16.80;99.90
11934;DHT22;6026;48.784;9.198;2022-11-02T14:48:30;16.90;99.90
11934;DHT22;6026;48.784;9.198;2022-11-02T14:51:19;16.90;99.90
11934;DHT22;6026;48.784;9.198;2022-11-02T14:53:46;16.90;99.90
11934;DHT22;6026;48.784;9.198;2022-11-02T14:56:13;16.80;99.90
11934;DHT22;6026;48.784;9.198;2022-11-02T14:58:46;16.70;99.90
11934;DHT22;6026;48.784;9.198;2022-11-02T15:01:14;16.70;99.90
11934;DHT22;6026;48.784;9.198;2022-11-02T15:03:41;16.50;99.90
11934;DHT22;6026;48.784;9.198;2022-11-02T15:06:15;16.30;99.90
11934;DHT22;6026;48.784;9.198;2022-11-02T15:11:46;16.00;99.90
11934;DHT22;6026;48.784;9.198;2022-11-02T15:19:45;15.40;99.90
11934;DHT22;6026;48.784;9.198;2022-11-02T15:24:59;15.10;99.90
11934;DHT22;6026;48.784;9.198;2022-11-02T15:27:26;15.00;99.90
11934;DHT22;6026;48.784;9.198;2022-11-02T15:29:53;14.80;99.90
11934;DHT22;6026;48.784;9.198;2022-11-02T15:32:25;14.70;99.90
11934;DHT22;6026;48.784;9.198;2022-11-02T15:34:56;14.70;99.90
11934;DHT22;6026;48.784;9.198;2022-11-02T15:37:24;14.60;99.90
11934;DHT22;6026;48.784;9.198;2022-11-02T15:40:01;14.50;99.90
11934;DHT22;6026;48.784;9.198;2022-11-02T16:01:31;13.60;99.90
11934;DHT22;6026;48.784;9.198;2022-11-02T16:04:02;13.40;99.90
11934;DHT22;6026;48.784;9.198;2022-11-02T16:06:35;13.30;99.90
11934;DHT22;6026;48.784;9.198;2022-11-02T16:09:03;13.20;99.90
11934;DHT22;6026;48.784;9.198;2022-11-02T16:12:07;13.00;99.90
11934;DHT22;6026;48.784;9.198;2022-11-02T16:14:35;13.00;99.90
11934;DHT22;6026;48.784;9.198;2022-11-02T16:17:01;12.90;99.90
11934;DHT22;6026;48.784;9.198;2022-11-02T16:19:26;12.80;99.90
11934;DHT22;6026;48.784;9.198;2022-11-02T16:21:52;12.80;99.90
11934;DHT22;6026;48.784;9.198;2022-11-02T16:24:18;12.60;99.90
11934;DHT22;6026;48.784;9.198;2022-11-02T16:26:44;12.60;99.90
11934;DHT22;6026;48.784;9.198;2022-11-02T16:29:14;12.60;99.90
11934;DHT22;6026;48.784;9.198;2022-11-02T16:31:45;12.50;99.90
11934;DHT22;6026;48.784;9.198;2022-11-02T16:34:28;12.40;99.90
11934;DHT22;6026;48.784;9.198;2022-11-02T16:36:55;12.40;99.90
11934;DHT22;6026;48.784;9.198;2022-11-02T16:39:29;12.30;99.90
11934;DHT22;6026;48.784;9.198;2022-11-02T16:41:59;12.30;99.90
11934;DHT22;6026;48.784;9.198;2022-11-02T16:44:26;12.30;99.90
11934;DHT22;6026;48.784;9.198;2022-11-02T16:49:33;12.10;99.90
11934;DHT22;6026;48.784;9.198;2022-11-02T16:52:18;12.10;99.90
11934;DHT22;6026;48.784;9.198;2022-11-02T16:54:44;12.00;99.90
11934;DHT22;6026;48.784;9.198;2022-11-02T16:59:37;11.90;99.90
11934;DHT22;6026;48.784;9.198;2022-11-02T17:02:03;11.90;99.90
11934;DHT22;6026;48.784;9.198;2022-11-02T17:04:30;11.90;99.90
11934;DHT22;6026;48.784;9.198;2022-11-02T17:07:07;11.90;99.90
11934;DHT22;6026;48.784;9.198;2022-11-02T17:09:33;11.80;99.90
11934;DHT22;6026;48.784;9.198;2022-11-02T17:12:13;11.80;99.90
11934;DHT22;6026;48.784;9.198;2022-11-02T17:14:45;11.70;99.90
11934;DHT22;6026;48.784;9.198;2022-11-02T17:22:37;11.50;99.90
11934;DHT22;6026;48.784;9.198;2022-11-02T17:25:12;11.50;99.90
11934;DHT22;6026;48.784;9.198;2022-11-02T17:27:43;11.40;99.90
11934;DHT22;6026;48.784;9.198;2022-11-02T17:33:27;11.30;99.90
11934;DHT22;6026;48.784;9.198;2022-11-02T17:35:55;11.30;99.90
11934;DHT22;6026;48.784;9.198;2022-11-02T17:38:25;11.30;99.90
11934;DHT22;6026;48.784;9.198;2022-11-02T17:40:52;11.30;99.90
11934;DHT22;6026;48.784;9.198;2022-11-02T17:43:22;11.20;99.90
11934;DHT22;6026;48.784;9.198;2022-11-02T17:45:58;11.10;99.90
11934;DHT22;6026;48.784;9.198;2022-11-02T17:48:27;11.10;99.90
11934;DHT22;6026;48.784;9.198;2022-11-02T17:50:55;11.10;99.90
11934;DHT22;6026;48.784;9.198;2022-11-02T17:53:22;11.10;99.90
11934;DHT22;6026;48.784;9.198;2022-11-02T17:55:48;11.00;99.90
11934;DHT22;6026;48.784;9.198;2022-11-02T17:58:14;11.00;99.90
11934;DHT22;6026;48.784;9.198;2022-11-02T18:00:39;11.00;99.90
11934;DHT22;6026;48.784;9.198;2022-11-02T18:03:16;10.90;99.90
11934;DHT22;6026;48.784;9.198;2022-11-02T18:05:43;10.90;99.90
11934;DHT22;6026;48.784;9.198;2022-11-02T18:08:09;10.90;99.90
11934;DHT22;6026;48.784;9.198;2022-11-02T18:10:40;10.80;99.90
11934;DHT22;6026;48.784;9.198;2022-11-02T18:13:27;10.80;99.90
11934;DHT22;6026;48.784;9.198;2022-11-02T18:15:52;10.70;99.90
11934;DHT22;6026;48.784;9.198;2022-11-02T18:18:18;10.70;99.90
11934;DHT22;6026;48.784;9.198;2022-11-02T18:20:43;10.60;99.90
11934;DHT22;6026;48.784;9.198;2022-11-02T18:23:14;10.60;99.90
11934;DHT22;6026;48.784;9.198;2022-11-02T18:25:39;10.60;99.90
11934;DHT22;6026;48.784;9.198;2022-11-02T18:28:05;10.50;99.90
11934;DHT22;6026;48.784;9.198;2022-11-02T18:30:32;10.50;99.90
11934;DHT22;6026;48.784;9.198;2022-11-02T18:32:59;10.50;99.90
11934;DHT22;6026;48.784;9.198;2022-11-02T18:35:25;10.50;99.90
11934;DHT22;6026;48.784;9.198;2022-11-02T18:37:50;10.40;99.90
11934;DHT22;6026;48.784;9.198;2022-11-02T18:40:18;10.40;99.90
11934;DHT22;6026;48.784;9.198;2022-11-02T18:42:44;10.30;99.90
11934;DHT22;6026;48.784;9.198;2022-11-02T18:45:12;10.30;99.90
11934;DHT22;6026;48.784;9.198;2022-11-02T18:47:38;10.30;99.90
11934;DHT22;6026;48.784;9.198;2022-11-02T18:50:05;10.30;99.90
11934;DHT22;6026;48.784;9.198;2022-11-02T18:52:31;10.30;99.90
11934;DHT22;6026;48.784;9.198;2022-11-02T18:54:57;10.20;99.90
11934;DHT22;6026;48.784;9.198;2022-11-02T18:57:28;10.20;99.90
11934;DHT22;6026;48.784;9.198;2022-11-02T18:59:54;10.20;99.90
11934;DHT22;6026;48.784;9.198;2022-11-02T19:02:19;10.20;99.90
11934;DHT22;6026;48.784;9.198;2022-11-02T19:04:45;10.20;99.90
11934;DHT22;6026;48.784;9.198;2022-11-02T19:07:10;10.20;99.90
11934;DHT22;6026;48.784;9.198;2022-11-02T19:09:54;10.10;99.90
11934;DHT22;6026;48.784;9.198;2022-11-02T19:12:26;10.10;99.90
11934;DHT22;6026;48.784;9.198;2022-11-02T19:14:52;10.10;99.90